Time;durP1;ratioP1;P1;durP2;ratioP2;P2;SDS_P1;SDS_P2;PMS_P1;PMS_P2;Temp;Humidity;BMP_temperature;BMP_pressure;BME280_temperature;BME280_humidity;BME280_pressure;Samples;Min_cycle;Max_cycle;Signal;HPM_P1;HPM_P2
2022/01/04 00:01:02;;;;;;;11.80;6.03;;;;;;;8.17;92.27;100232.94;4982732;28;20015;-89
2022/01/04 00:03:28;;;;;;;10.25;6.00;;;;;;;8.18;92.39;100228.63;4997913;28;20050;-88
2022/01/04 00:05:55;;;;;;;14.10;6.72;;;;;;;8.20;92.31;100225.09;4984721;28;20039;-88
2022/01/04 00:08:22;;;;;;;10.60;6.10;;;;;;;8.16;92.15;100215.75;4977665;28;20054;-88
2022/01/04 00:10:49;;;;;;;15.13;5.82;;;;;;;8.18;91.89;100208.81;4966703;28;20502;-88
2022/01/04 00:13:22;;;;;;;14.15;6.22;;;;;;;8.14;91.94;100207.19;4961891;28;20022;-89
2022/01/04 00:15:48;;;;;;;13.50;6.07;;;;;;;8.15;91.94;100202.88;4971200;28;20023;-88
2022/01/04 00:18:18;;;;;;;12.52;6.10;;;;;;;8.13;91.96;100215.81;4971157;28;20038;-89
2022/01/04 00:20:44;;;;;;;12.73;5.82;;;;;;;8.11;91.97;100201.25;4987688;28;20079;-89
2022/01/04 00:23:09;;;;;;;11.90;5.50;;;;;;;8.06;92.12;100195.34;4970917;28;20113;-88
2022/01/04 00:25:37;;;;;;;9.60;5.38;;;;;;;8.08;92.13;100191.00;4969710;28;20037;-89
2022/01/04 00:28:07;;;;;;;11.13;5.68;;;;;;;8.03;92.44;100193.69;4975368;28;20053;-89
2022/01/04 00:30:33;;;;;;;12.75;6.07;;;;;;;8.09;92.18;100180.66;4972368;28;20026;-88
2022/01/04 00:32:58;;;;;;;12.63;6.07;;;;;;;8.08;91.91;100165.19;4971826;28;20031;-89
2022/01/04 00:35:24;;;;;;;10.75;5.68;;;;;;;8.07;92.11;100154.00;4973017;28;20377;-88
2022/01/04 00:37:49;;;;;;;13.40;5.95;;;;;;;8.12;92.38;100151.34;4971249;28;20069;-88
2022/01/04 00:40:15;;;;;;;9.38;5.40;;;;;;;8.12;91.99;100157.31;4969844;28;20035;-88
2022/01/04 00:42:40;;;;;;;9.88;5.05;;;;;;;7.98;92.07;100135.34;4972101;28;20439;-89
2022/01/04 00:45:06;;;;;;;10.65;4.95;;;;;;;8.05;92.26;100134.31;4984503;28;20118;-89
2022/01/04 00:49:09;;;;;;;11.05;5.63;;;;;;;7.98;92.30;100125.03;4971124;28;20033;-90
2022/01/04 00:50:24;;;;;;;14.57;5.72;;;;;;;8.09;92.09;100143.66;4972330;28;20089;-89
2022/01/04 00:52:50;;;;;;;12.10;5.90;;;;;;;8.00;92.08;100128.38;4985823;28;20420;-89
2022/01/04 00:55:16;;;;;;;10.73;5.47;;;;;;;8.02;92.20;100129.22;4986954;28;20633;-88
2022/01/04 00:57:41;;;;;;;11.48;5.45;;;;;;;7.99;92.27;100132.69;4970602;28;20047;-88
2022/01/04 01:00:09;;;;;;;13.95;5.78;;;;;;;7.99;91.77;100129.28;4971505;28;20025;-88
2022/01/04 01:02:35;;;;;;;11.95;5.20;;;;;;;8.06;92.09;100133.41;4970740;28;20023;-88
2022/01/04 01:05:03;;;;;;;10.80;5.35;;;;;;;7.96;92.15;100113.88;4986621;28;20031;-88
2022/01/04 01:07:29;;;;;;;10.45;4.82;;;;;;;8.01;92.06;100114.59;4971476;28;20043;-89
2022/01/04 01:12:29;;;;;;;10.25;5.15;;;;;;;8.03;92.52;100118.00;4971213;28;20062;-88
2022/01/04 01:14:54;;;;;;;10.02;5.18;;;;;;;8.02;92.29;100109.41;4971781;28;20105;-88
2022/01/04 01:17:20;;;;;;;9.75;4.53;;;;;;;8.03;92.36;100115.44;4970677;28;20074;-88
2022/01/04 01:19:45;;;;;;;8.88;4.82;;;;;;;7.94;92.08;100112.19;4979480;28;20042;-89
2022/01/04 01:22:11;;;;;;;9.73;4.78;;;;;;;7.97;92.56;100108.69;4973768;28;20061;-89
2022/01/04 01:24:36;;;;;;;9.65;5.15;;;;;;;7.97;92.46;100103.53;4968351;28;20082;-88
2022/01/04 01:27:02;;;;;;;11.02;4.85;;;;;;;8.00;92.77;100105.16;4968671;28;20161;-88
2022/01/04 01:29:28;;;;;;;9.85;5.00;;;;;;;7.99;92.62;100104.31;4969133;28;20046;-89
2022/01/04 01:31:54;;;;;;;11.88;4.60;;;;;;;7.94;92.72;100083.78;4971540;28;20027;-89
2022/01/04 01:34:19;;;;;;;13.40;5.50;;;;;;;8.02;92.69;100090.50;4972576;28;20038;-88
2022/01/04 01:36:45;;;;;;;9.90;4.72;;;;;;;8.00;92.82;100100.00;4970591;28;20030;-89
2022/01/04 01:39:10;;;;;;;12.52;5.20;;;;;;;8.02;92.50;100090.50;4962734;28;20693;-88
2022/01/04 01:41:36;;;;;;;9.52;5.15;;;;;;;8.02;92.61;100082.75;4972331;28;20038;-89
2022/01/04 01:44:02;;;;;;;11.15;5.57;;;;;;;7.98;92.35;100065.66;4969470;28;20423;-87
2022/01/04 01:46:27;;;;;;;9.55;4.57;;;;;;;7.93;92.25;100058.03;4969908;28;20030;-89
2022/01/04 01:48:52;;;;;;;10.68;4.85;;;;;;;7.93;92.33;100063.19;4969451;28;20439;-89
2022/01/04 01:51:18;;;;;;;12.88;5.70;;;;;;;7.89;92.29;100059.84;4970921;28;20045;-88
2022/01/04 01:53:45;;;;;;;15.00;5.22;;;;;;;7.87;92.61;100061.63;4969966;28;20022;-89
2022/01/04 01:56:10;;;;;;;13.38;5.47;;;;;;;7.85;92.46;100047.91;4968125;28;20031;-89
2022/01/04 01:58:36;;;;;;;11.20;5.05;;;;;;;7.84;92.76;100058.28;4968597;28;20065;-89
2022/01/04 02:01:02;;;;;;;12.43;5.53;;;;;;;7.88;92.28;100067.63;4969371;28;20391;-89
2022/01/04 02:03:27;;;;;;;15.15;5.53;;;;;;;7.85;92.87;100068.53;4968394;28;20018;-89
2022/01/04 02:05:56;;;;;;;11.30;5.30;;;;;;;7.85;92.72;100065.97;4975485;28;20085;-88
2022/01/04 02:08:22;;;;;;;10.23;5.05;;;;;;;7.81;92.47;100056.59;4969017;28;20070;-89
2022/01/04 02:10:49;;;;;;;13.50;5.40;;;;;;;7.78;92.80;100050.69;4970984;28;20112;-88
2022/01/04 02:13:14;;;;;;;13.70;5.53;;;;;;;7.77;92.82;100054.16;4970070;28;20027;-88
2022/01/04 02:15:40;;;;;;;11.85;5.25;;;;;;;7.73;92.88;100040.47;4969109;28;20223;-89
2022/01/04 02:18:08;;;;;;;13.48;5.50;;;;;;;7.67;93.45;100032.03;4984337;28;20034;-89
2022/01/04 02:20:34;;;;;;;11.75;5.35;;;;;;;7.72;93.14;100041.34;4970582;28;20105;-88
2022/01/04 02:22:59;;;;;;;12.10;5.88;;;;;;;7.75;93.60;100030.97;4967207;28;20026;-89
2022/01/04 02:25:24;;;;;;;12.00;5.78;;;;;;;7.75;93.43;100020.66;4973642;28;20066;-89
2022/01/04 02:27:51;;;;;;;12.73;5.60;;;;;;;7.75;93.41;100015.50;4980569;28;20042;-89
2022/01/04 02:30:19;;;;;;;13.88;6.43;;;;;;;7.80;93.14;100021.38;4993890;28;20030;-89
2022/01/04 02:32:46;;;;;;;14.18;6.28;;;;;;;7.79;93.25;100024.00;4983109;28;20093;-88
2022/01/04 02:35:16;;;;;;;14.75;6.30;;;;;;;7.81;93.00;100017.91;4969767;28;20081;-88
2022/01/04 02:37:42;;;;;;;13.98;6.25;;;;;;;7.77;92.87;100013.72;4971213;28;20110;-89
2022/01/04 02:40:08;;;;;;;10.80;6.07;;;;;;;7.76;92.89;100009.44;4968657;28;20054;-89
2022/01/04 02:42:34;;;;;;;15.05;6.47;;;;;;;7.83;92.35;100023.88;4969057;28;20224;-88
2022/01/04 02:45:00;;;;;;;13.43;6.60;;;;;;;7.75;92.41;100001.75;4975247;28;20500;-89
2022/01/04 02:47:27;;;;;;;13.88;6.45;;;;;;;7.78;93.37;100007.66;4968716;28;20030;-89
2022/01/04 02:49:53;;;;;;;13.50;6.15;;;;;;;7.81;92.75;100002.44;4968532;28;20030;-89
2022/01/04 02:52:18;;;;;;;12.32;6.35;;;;;;;7.84;92.31;99998.94;4968968;28;20030;-88
2022/01/04 02:54:43;;;;;;;11.80;5.95;;;;;;;7.82;92.59;99998.97;4984255;28;20033;-89
2022/01/04 02:57:14;;;;;;;14.60;6.28;;;;;;;7.78;92.17;99992.19;4967683;28;20050;-88
2022/01/04 02:59:40;;;;;;;12.85;5.90;;;;;;;7.81;92.35;99991.25;4966311;28;20058;-88
2022/01/04 03:02:05;;;;;;;12.60;5.78;;;;;;;7.78;92.32;99992.19;4967394;28;20031;-88
2022/01/04 03:04:31;;;;;;;14.48;5.93;;;;;;;7.82;92.27;99985.22;4969776;28;20035;-89
2022/01/04 03:06:57;;;;;;;13.90;6.22;;;;;;;7.81;92.50;99979.22;4969472;28;20494;-89
2022/01/04 03:09:23;;;;;;;12.25;5.60;;;;;;;7.79;92.09;99962.91;4968139;28;20027;-90
2022/01/04 03:11:48;;;;;;;12.07;5.78;;;;;;;7.74;92.16;99958.78;4970169;28;20033;-89
2022/01/04 03:14:13;;;;;;;14.50;5.72;;;;;;;7.69;91.80;99953.75;4967368;28;20035;-89
2022/01/04 03:16:39;;;;;;;13.88;5.80;;;;;;;7.78;92.27;99974.13;4978378;28;20030;-88
2022/01/04 03:19:09;;;;;;;14.73;5.70;;;;;;;7.79;92.50;99965.50;4968237;28;20485;-88
2022/01/04 03:21:42;;;;;;;14.43;6.38;;;;;;;7.78;92.22;99956.06;4982153;28;20576;-89
2022/01/04 03:24:12;;;;;;;14.88;6.80;;;;;;;7.72;92.11;99942.47;4977614;28;20056;-89
2022/01/04 03:26:38;;;;;;;15.85;6.80;;;;;;;7.73;92.03;99946.75;4969173;28;20085;-88
2022/01/04 03:29:07;;;;;;;15.70;6.75;;;;;;;7.68;92.31;99918.53;4969392;28;20037;-88
2022/01/04 03:31:33;;;;;;;14.32;6.13;;;;;;;7.70;91.99;99926.22;4967827;28;20111;-88
2022/01/04 03:33:59;;;;;;;15.13;6.10;;;;;;;7.76;92.19;99929.50;4968574;28;20392;-88
2022/01/04 03:36:25;;;;;;;16.85;6.32;;;;;;;7.71;92.12;99913.25;4968308;28;20029;-89
2022/01/04 03:38:56;;;;;;;13.48;6.55;;;;;;;7.71;92.08;99913.25;4968557;28;20377;-88
2022/01/04 03:41:24;;;;;;;15.95;6.35;;;;;;;7.71;91.96;99896.97;4971606;28;20019;-89
2022/01/04 03:43:50;;;;;;;14.38;6.43;;;;;;;7.67;91.95;99880.72;4979635;28;20023;-89
2022/01/04 03:46:16;;;;;;;14.60;6.30;;;;;;;7.74;92.46;99887.41;4967859;28;20031;-89
2022/01/04 03:48:42;;;;;;;12.32;6.00;;;;;;;7.70;92.27;99870.31;4970629;28;20031;-89
2022/01/04 03:51:08;;;;;;;13.63;5.70;;;;;;;7.69;92.27;99873.78;4968660;28;20031;-89
2022/01/04 03:53:34;;;;;;;13.50;5.88;;;;;;;7.73;91.75;99877.97;4967018;28;20058;-88
2022/01/04 03:56:00;;;;;;;10.98;4.40;;;;;;;7.69;91.90;99865.22;4972126;28;20403;-88
2022/01/04 03:58:26;;;;;;;15.07;5.70;;;;;;;7.63;91.86;99860.22;4971860;28;20629;-88
2022/01/04 04:00:53;;;;;;;15.95;6.05;;;;;;;7.69;91.60;99863.47;4971549;28;20187;-89
2022/01/04 04:03:20;;;;;;;12.68;4.97;;;;;;;7.62;92.15;99848.22;4971602;28;20676;-88
2022/01/04 04:05:46;;;;;;;13.20;5.78;;;;;;;7.67;92.06;99849.78;4971728;28;20038;-89
2022/01/04 04:08:11;;;;;;;13.25;5.82;;;;;;;7.64;92.15;99844.72;4971755;28;20042;-88
2022/01/04 04:10:37;;;;;;;16.20;6.68;;;;;;;7.60;91.71;99835.34;4965016;28;20030;-88
2022/01/04 04:13:05;;;;;;;13.23;5.65;;;;;;;7.65;92.06;99846.38;4971745;28;20030;-89
2022/01/04 04:15:33;;;;;;;12.40;5.72;;;;;;;7.64;92.28;99842.13;4966065;28;20035;-89
2022/01/04 04:17:59;;;;;;;13.98;5.65;;;;;;;7.67;92.17;99841.19;4972669;28;20027;-89
2022/01/04 04:20:25;;;;;;;13.85;5.80;;;;;;;7.63;92.07;99824.97;4976344;28;20031;-89
2022/01/04 04:22:50;;;;;;;15.07;6.18;;;;;;;7.56;92.27;99820.88;4970001;28;20496;-88
2022/01/04 04:25:16;;;;;;;14.82;5.57;;;;;;;7.59;92.40;99813.03;4973357;28;20030;-89
2022/01/04 04:27:42;;;;;;;13.77;6.05;;;;;;;7.60;92.01;99806.97;4970234;28;20031;-88
2022/01/04 04:30:08;;;;;;;14.55;5.97;;;;;;;7.59;92.08;99804.44;4971521;28;20081;-89
2022/01/04 04:32:34;;;;;;;14.23;5.38;;;;;;;7.56;92.47;99802.81;4969946;28;20167;-89
2022/01/04 04:34:59;;;;;;;14.02;5.78;;;;;;;7.59;92.15;99807.03;4970536;28;20030;-89
2022/01/04 04:37:25;;;;;;;15.35;5.97;;;;;;;7.57;92.25;99814.81;4984322;28;20034;-89
2022/01/04 04:39:50;;;;;;;13.40;5.97;;;;;;;7.60;92.37;99816.44;4971374;28;20027;-89
2022/01/04 04:42:16;;;;;;;15.15;6.40;;;;;;;7.62;92.19;99809.53;4970430;28;20038;-88
2022/01/04 04:44:44;;;;;;;13.15;6.38;;;;;;;7.58;92.33;99807.91;4969695;28;20104;-89
2022/01/04 04:47:09;;;;;;;14.68;5.85;;;;;;;7.61;92.44;99813.00;4971635;28;20037;-88
2022/01/04 04:49:34;;;;;;;14.98;6.15;;;;;;;7.62;92.32;99815.53;4966710;28;20022;-89
2022/01/04 04:52:02;;;;;;;13.70;6.15;;;;;;;7.55;92.25;99798.53;4986512;28;20133;-89
2022/01/04 04:54:28;;;;;;;14.77;6.38;;;;;;;7.63;92.19;99814.66;4971251;28;20034;-89
2022/01/04 04:56:54;;;;;;;17.60;6.00;;;;;;;7.64;92.49;99820.66;4979046;28;20031;-88
2022/01/04 04:59:20;;;;;;;14.05;5.93;;;;;;;7.60;92.55;99811.28;4995836;28;20023;-89
2022/01/04 05:01:45;;;;;;;18.15;6.57;;;;;;;7.63;92.27;99813.81;4981390;28;20508;-89
2022/01/04 05:04:13;;;;;;;15.43;6.75;;;;;;;7.63;92.28;99817.22;4970506;28;20042;-89
2022/01/04 05:06:38;;;;;;;13.98;6.20;;;;;;;7.63;92.46;99816.38;4970981;28;20062;-89
2022/01/04 05:09:04;;;;;;;18.08;6.63;;;;;;;7.62;92.31;99804.38;4968148;28;20109;-88
2022/01/04 05:11:29;;;;;;;17.65;6.60;;;;;;;7.60;92.63;99795.81;4970683;28;20031;-88
2022/01/04 05:13:55;;;;;;;15.30;6.07;;;;;;;7.59;93.00;99794.97;4971138;28;20043;-89
2022/01/04 05:16:21;;;;;;;16.23;6.47;;;;;;;7.62;92.66;99809.53;4985979;28;20030;-89
2022/01/04 05:18:46;;;;;;;16.83;6.88;;;;;;;7.59;92.49;99801.84;4970816;28;20025;-89
2022/01/04 05:21:12;;;;;;;15.13;6.50;;;;;;;7.56;92.33;99787.34;4970373;28;20118;-89
2022/01/04 05:23:37;;;;;;;15.50;6.45;;;;;;;7.61;92.31;99794.94;4970456;28;20496;-89
2022/01/04 05:26:03;;;;;;;17.90;6.22;;;;;;;7.56;92.45;99779.59;4970975;28;20039;-88
2022/01/04 05:28:28;;;;;;;15.15;6.43;;;;;;;7.58;92.10;99761.47;4971572;28;20100;-89
2022/01/04 05:30:54;;;;;;;15.15;6.10;;;;;;;7.53;92.87;99765.06;4969898;28;20039;-89
2022/01/04 05:33:19;;;;;;;15.13;6.38;;;;;;;7.54;92.85;99771.91;4969408;28;20026;-88
2022/01/04 05:35:47;;;;;;;16.30;6.50;;;;;;;7.61;92.75;99782.88;4986192;28;20061;-88
2022/01/04 05:38:14;;;;;;;16.63;6.03;;;;;;;7.59;92.60;99766.59;4970734;28;20035;-89
2022/01/04 05:40:39;;;;;;;16.88;6.50;;;;;;;7.61;92.62;99764.84;4971246;28;20082;-89
2022/01/04 05:43:05;;;;;;;18.13;7.10;;;;;;;7.53;92.53;99748.75;4985680;28;20042;-89
2022/01/04 05:45:33;;;;;;;17.70;7.10;;;;;;;7.50;92.83;99735.94;4969247;28;20361;-89
2022/01/04 05:47:59;;;;;;;17.83;6.95;;;;;;;7.54;93.41;99742.69;4986196;28;20027;-88
2022/01/04 05:50:24;;;;;;;16.25;6.82;;;;;;;7.51;93.70;99737.63;4970636;28;20029;-89
2022/01/04 05:52:50;;;;;;;19.27;6.93;;;;;;;7.44;93.89;99733.53;4967706;28;20035;-89
2022/01/04 05:55:15;;;;;;;16.88;7.30;;;;;;;7.40;94.26;99735.34;4970933;28;20499;-89
2022/01/04 05:57:41;;;;;;;16.38;7.00;;;;;;;7.42;94.48;99732.75;4970209;28;20042;-89
2022/01/04 06:00:08;;;;;;;19.17;7.28;;;;;;;7.35;94.51;99731.22;4971529;28;20484;-89
2022/01/04 06:02:34;;;;;;;18.33;6.80;;;;;;;7.36;94.45;99740.66;4970281;28;20023;-89
2022/01/04 06:04:59;;;;;;;19.52;7.40;;;;;;;7.32;94.62;99739.88;4971261;28;20077;-89
2022/01/04 06:07:27;;;;;;;20.83;7.28;;;;;;;7.34;94.79;99740.69;4971767;28;20034;-89
2022/01/04 06:09:54;;;;;;;18.42;7.28;;;;;;;7.43;95.04;99742.16;4971510;28;20038;-89
2022/01/04 06:14:52;;;;;;;17.02;7.88;;;;;;;7.38;94.79;99723.38;4967509;28;20030;-88
2022/01/04 06:17:19;;;;;;;19.90;7.63;;;;;;;7.39;94.82;99725.94;4975307;28;20046;-89
2022/01/04 06:19:44;;;;;;;22.25;8.82;;;;;;;7.39;95.09;99725.94;4971659;28;20102;-88
2022/01/04 06:22:10;;;;;;;17.15;8.00;;;;;;;7.44;94.74;99728.38;4971744;28;20064;-89
2022/01/04 06:24:36;;;;;;;17.45;7.07;;;;;;;7.44;94.54;99724.06;4971987;28;20023;-88
2022/01/04 06:27:06;;;;;;;16.95;7.38;;;;;;;7.40;94.99;99719.03;4970850;28;20451;-88
2022/01/04 06:29:31;;;;;;;20.95;7.53;;;;;;;7.41;94.91;99718.16;4975816;28;20088;-88
2022/01/04 06:31:57;;;;;;;22.13;7.85;;;;;;;7.41;94.76;99713.84;4969232;28;20484;-88
2022/01/04 06:34:22;;;;;;;19.23;7.07;;;;;;;7.42;94.58;99719.84;4973209;28;20101;-89
2022/01/04 06:36:48;;;;;;;18.05;7.70;;;;;;;7.45;94.54;99737.78;4970795;28;20026;-88
2022/01/04 06:39:13;;;;;;;16.15;7.55;;;;;;;7.41;94.73;99726.75;4959497;28;20029;-88
2022/01/04 06:41:39;;;;;;;20.42;7.80;;;;;;;7.41;95.02;99726.75;4970502;28;20027;-88
2022/01/04 06:44:04;;;;;;;21.38;8.13;;;;;;;7.42;95.35;99719.84;4970446;28;20034;-88
2022/01/04 06:46:30;;;;;;;19.40;8.27;;;;;;;7.41;95.88;99708.69;4970773;28;20075;-89
2022/01/04 06:48:55;;;;;;;20.05;7.95;;;;;;;7.35;95.62;99724.34;4970936;28;20030;-88
2022/01/04 06:51:20;;;;;;;20.17;7.80;;;;;;;7.23;96.25;99708.38;4970890;28;20447;-89
2022/01/04 06:53:49;;;;;;;18.38;8.13;;;;;;;7.21;96.59;99692.97;4966432;28;20062;-88
2022/01/04 06:56:17;;;;;;;19.33;8.00;;;;;;;7.20;96.91;99700.72;4970055;28;20392;-88
2022/01/04 06:58:42;;;;;;;22.45;8.38;;;;;;;7.14;96.98;99699.16;4970521;28;20069;-88
2022/01/04 07:01:08;;;;;;;19.73;8.27;;;;;;;7.19;97.77;99696.47;4968634;28;20690;-89
2022/01/04 07:03:33;;;;;;;20.05;7.93;;;;;;;7.20;97.25;99695.56;4970466;28;20030;-89
2022/01/04 07:05:59;;;;;;;24.30;9.00;;;;;;;7.19;97.57;99688.72;4970402;28;20041;-89
2022/01/04 07:08:24;;;;;;;18.67;8.75;;;;;;;7.12;97.16;99678.59;4972389;28;20094;-89
2022/01/04 07:10:49;;;;;;;20.40;8.25;;;;;;;7.16;97.50;99681.09;4970419;28;20042;-89
2022/01/04 07:13:15;;;;;;;20.98;8.38;;;;;;;7.19;97.15;99681.00;4970822;28;20526;-89
2022/01/04 07:15:40;;;;;;;23.42;9.13;;;;;;;7.12;97.31;99668.28;4970146;28;20109;-89
2022/01/04 07:18:06;;;;;;;20.80;8.48;;;;;;;7.10;97.74;99670.06;4969390;28;20030;-88
2022/01/04 07:20:32;;;;;;;19.85;8.25;;;;;;;7.15;97.40;99685.41;4968580;28;20045;-88
2022/01/04 07:22:57;;;;;;;24.17;9.60;;;;;;;7.11;97.28;99673.47;4986531;28;20052;-89
2022/01/04 07:25:24;;;;;;;22.75;9.23;;;;;;;7.08;97.65;99660.69;4972814;28;20398;-89
2022/01/04 07:27:49;;;;;;;22.23;9.15;;;;;;;7.11;97.68;99670.91;4974912;28;20031;-88
2022/01/04 07:30:15;;;;;;;24.33;9.13;;;;;;;7.08;97.69;99647.81;4994110;28;20033;-88
2022/01/04 07:32:40;;;;;;;25.35;9.35;;;;;;;7.04;97.54;99636.72;4993779;28;20053;-89
2022/01/04 07:35:06;;;;;;;24.67;9.63;;;;;;;7.10;97.57;99646.00;4973741;28;20038;-89
2022/01/04 07:37:32;;;;;;;26.00;8.88;;;;;;;7.00;97.67;99627.41;4974810;28;20037;-91
2022/01/04 07:39:57;;;;;;;24.00;9.48;;;;;;;7.08;97.74;99638.34;4972777;28;20030;-89
2022/01/04 07:42:22;;;;;;;27.20;9.68;;;;;;;7.09;97.84;99634.91;4976389;28;20057;-89
2022/01/04 07:44:48;;;;;;;26.77;10.05;;;;;;;7.11;97.70;99633.09;4972483;28;20118;-89
2022/01/04 07:47:13;;;;;;;28.92;10.40;;;;;;;7.05;97.72;99627.28;4974385;28;20057;-89
2022/01/04 07:49:39;;;;;;;28.42;10.00;;;;;;;7.10;97.68;99635.72;4981641;28;20027;-89
2022/01/04 07:52:04;;;;;;;29.30;11.43;;;;;;;7.05;97.58;99643.59;4973770;28;20436;-89
2022/01/04 07:54:30;;;;;;;29.40;9.82;;;;;;;7.08;97.74;99652.97;4972125;28;20046;-89
2022/01/04 07:56:55;;;;;;;28.08;10.70;;;;;;;7.10;97.88;99653.75;4973591;28;20126;-89
2022/01/04 07:59:21;;;;;;;29.80;10.65;;;;;;;7.10;97.63;99659.75;4976149;28;20121;-89
2022/01/04 08:01:47;;;;;;;29.02;10.88;;;;;;;7.09;97.51;99659.81;4973835;28;20523;-89
2022/01/04 08:04:12;;;;;;;26.45;9.73;;;;;;;7.11;98.04;99658.84;4973085;28;20035;-89
2022/01/04 08:06:39;;;;;;;27.00;10.27;;;;;;;7.21;97.64;99658.59;4972126;28;20081;-89
2022/01/04 08:09:05;;;;;;;25.98;10.02;;;;;;;7.18;97.76;99645.78;4973313;28;20027;-89
2022/01/04 08:11:32;;;;;;;29.80;10.68;;;;;;;7.22;97.79;99643.09;4971020;28;20037;-89
2022/01/04 08:13:58;;;;;;;30.08;10.43;;;;;;;7.18;97.52;99627.75;4972556;28;20026;-89
2022/01/04 08:16:23;;;;;;;28.73;10.75;;;;;;;7.25;97.41;99639.56;4973032;28;20121;-88
2022/01/04 08:18:49;;;;;;;28.00;10.27;;;;;;;7.22;97.38;99629.38;4973174;28;20027;-89
2022/01/04 08:21:14;;;;;;;30.10;10.35;;;;;;;7.28;97.27;99647.22;4974280;28;20034;-88
2022/01/04 08:23:39;;;;;;;29.27;10.93;;;;;;;7.29;97.27;99646.34;4983422;28;20055;-89
2022/01/04 08:26:05;;;;;;;30.10;11.60;;;;;;;7.24;97.51;99637.88;4972685;28;20038;-89
2022/01/04 08:28:30;;;;;;;31.23;11.30;;;;;;;7.34;97.20;99665.09;4970079;28;20431;-89
2022/01/04 08:30:56;;;;;;;31.88;11.68;;;;;;;7.35;97.34;99656.47;4972494;28;20039;-88
2022/01/04 08:33:22;;;;;;;30.63;10.93;;;;;;;7.30;97.20;99646.28;4970740;28;20037;-88
2022/01/04 08:35:47;;;;;;;33.10;12.05;;;;;;;7.29;96.93;99642.03;4972304;28;20030;-88
2022/01/04 08:38:13;;;;;;;32.83;11.65;;;;;;;7.32;97.36;99652.25;4971233;28;20035;-89
2022/01/04 08:40:38;;;;;;;33.92;11.95;;;;;;;7.39;97.25;99660.63;4972309;28;20389;-89
2022/01/04 08:43:05;;;;;;;31.48;11.77;;;;;;;7.38;97.19;99661.53;4972221;28;20035;-88
2022/01/04 08:45:32;;;;;;;37.60;12.68;;;;;;;7.39;97.03;99676.09;4972932;28;20102;-88
2022/01/04 08:47:57;;;;;;;34.75;11.75;;;;;;;7.40;97.23;99678.66;4973214;28;20110;-89
2022/01/04 08:50:23;;;;;;;35.50;12.35;;;;;;;7.40;97.17;99682.94;4971533;28;20114;-89
2022/01/04 08:52:54;;;;;;;36.88;13.30;;;;;;;7.41;97.17;99685.50;4973062;28;20602;-89
2022/01/04 08:55:20;;;;;;;34.17;12.15;;;;;;;7.35;96.85;99671.94;4971975;28;20030;-90
2022/01/04 08:57:45;;;;;;;36.10;13.55;;;;;;;7.42;96.97;99683.75;4968623;28;20047;-89
2022/01/04 09:00:12;;;;;;;38.63;12.55;;;;;;;7.43;96.79;99696.63;4972526;28;20042;-89
2022/01/04 09:02:41;;;;;;;38.50;12.90;;;;;;;7.48;97.22;99692.16;4968869;28;20114;-89
2022/01/04 09:05:07;;;;;;;41.78;13.32;;;;;;;7.42;96.50;99674.28;4972098;28;20027;-89
2022/01/04 09:07:33;;;;;;;36.22;12.57;;;;;;;7.51;96.54;99691.19;4986570;28;20397;-89
2022/01/04 09:09:59;;;;;;;39.45;13.10;;;;;;;7.48;96.58;99679.25;4970135;28;20113;-89
2022/01/04 09:12:31;;;;;;;31.40;11.82;;;;;;;7.48;96.59;99673.25;4970935;28;20030;-89
2022/01/04 09:15:04;;;;;;;38.47;13.50;;;;;;;7.57;96.17;99685.88;4972272;28;20171;-88
2022/01/04 09:20:17;;;;;;;40.05;12.80;;;;;;;7.58;96.07;99669.50;4972420;28;20046;-88
2022/01/04 09:22:43;;;;;;;41.22;13.57;;;;;;;7.66;95.90;99671.84;4986259;28;20480;-88
2022/01/04 09:25:09;;;;;;;35.58;12.77;;;;;;;7.69;95.84;99670.03;4971013;28;20037;-88
2022/01/04 09:27:35;;;;;;;37.15;13.30;;;;;;;7.70;96.04;99674.31;4969559;28;20623;-87
2022/01/04 09:30:05;;;;;;;38.35;13.50;;;;;;;7.64;95.49;99663.34;4970464;28;20085;-88
2022/01/04 09:32:32;;;;;;;37.50;12.80;;;;;;;7.64;95.79;99665.91;4971871;28;20027;-88
2022/01/04 09:34:58;;;;;;;35.53;12.07;;;;;;;7.73;95.92;99684.50;4970838;28;20035;-88
2022/01/04 09:37:24;;;;;;;41.97;13.63;;;;;;;7.77;95.56;99698.19;4970638;28;20071;-88
2022/01/04 09:39:50;;;;;;;39.67;13.23;;;;;;;7.75;95.76;99689.63;4969178;28;20042;-88
2022/01/04 09:42:16;;;;;;;42.90;15.10;;;;;;;7.76;95.11;99689.59;4972026;28;20057;-88
2022/01/04 09:44:41;;;;;;;48.30;15.13;;;;;;;7.76;95.31;99692.19;4969181;28;20423;-89
2022/01/04 09:47:07;;;;;;;44.58;15.63;;;;;;;7.73;95.22;99684.50;4970306;28;20146;-90
2022/01/04 09:49:33;;;;;;;47.45;14.40;;;;;;;7.74;95.40;99687.94;4970850;28;20022;-88
2022/01/04 09:51:59;;;;;;;43.17;14.50;;;;;;;7.81;95.10;99698.03;4972011;28;20114;-88
2022/01/04 09:54:25;;;;;;;46.20;15.32;;;;;;;7.75;95.27;99687.06;4971747;28;20039;-89
2022/01/04 09:56:53;;;;;;;48.53;15.82;;;;;;;7.81;95.46;99690.28;4971237;28;20033;-88
2022/01/04 09:59:19;;;;;;;44.33;15.00;;;;;;;7.74;95.23;99669.88;4969808;28;20038;-88
2022/01/04 10:01:51;;;;;;;46.67;15.63;;;;;;;7.80;95.13;99680.84;4971615;28;20058;-88
2022/01/04 10:04:24;;;;;;;50.58;15.02;;;;;;;7.81;94.79;99673.97;4988653;28;20033;-88
2022/01/04 10:07:03;;;;;;;50.55;16.27;;;;;;;7.78;95.06;99669.72;4992103;28;20045;-88
2022/01/04 10:09:44;;;;;;;53.45;17.38;;;;;;;7.85;95.11;99678.97;4991755;28;20034;-88
2022/01/04 10:12:11;;;;;;;49.65;16.65;;;;;;;7.87;94.62;99687.50;4968972;28;20023;-88
2022/01/04 10:14:40;;;;;;;50.40;16.52;;;;;;;7.90;94.33;99691.75;4970491;28;20495;-88
2022/01/04 10:17:10;;;;;;;47.58;15.43;;;;;;;7.89;94.47;99675.41;4970667;28;20031;-88
2022/01/04 10:19:47;;;;;;;47.60;16.52;;;;;;;7.93;94.88;99663.25;4981346;28;20053;-89
2022/01/04 10:22:25;;;;;;;49.55;16.52;;;;;;;7.96;94.62;99664.91;4970618;28;20105;-89
2022/01/04 10:25:09;;;;;;;48.17;15.55;;;;;;;7.96;94.62;99642.53;4967247;28;20049;-88
2022/01/04 10:27:41;;;;;;;53.75;16.02;;;;;;;8.00;94.51;99640.69;4969362;28;20030;-89
2022/01/04 10:30:15;;;;;;;55.13;17.48;;;;;;;7.96;94.01;99633.94;4971248;28;20026;-89
2022/01/04 10:32:59;;;;;;;50.10;16.42;;;;;;;8.07;94.01;99642.16;4970727;28;20162;-88
2022/01/04 10:35:30;;;;;;;51.35;16.77;;;;;;;8.10;93.71;99652.41;4970435;28;20034;-89
2022/01/04 10:37:58;;;;;;;51.67;16.63;;;;;;;8.14;93.77;99657.41;4969147;28;20426;-88
2022/01/04 10:40:25;;;;;;;46.13;16.23;;;;;;;8.16;93.74;99649.63;4965229;28;20108;-89
2022/01/04 10:42:51;;;;;;;49.75;17.38;;;;;;;8.11;93.47;99626.53;4970956;28;20019;-89
2022/01/04 10:45:26;;;;;;;47.97;16.45;;;;;;;8.16;92.82;99622.06;4968657;28;20038;-89
2022/01/04 10:47:52;;;;;;;48.05;17.15;;;;;;;8.23;93.19;99639.03;4970269;28;20665;-91
2022/01/04 10:50:31;;;;;;;49.40;17.10;;;;;;;8.28;93.18;99642.31;4970885;28;20030;-96
2022/01/04 10:52:57;;;;;;;52.60;17.55;;;;;;;8.22;92.75;99624.44;4971494;28;20034;-96
2022/01/04 10:55:23;;;;;;;53.13;17.15;;;;;;;8.30;92.62;99625.06;4969401;28;20090;-96
2022/01/04 10:57:48;;;;;;;50.28;16.73;;;;;;;8.28;92.70;99634.56;4969034;28;20409;-95
2022/01/04 11:00:15;;;;;;;49.53;17.15;;;;;;;8.29;92.45;99645.72;4969471;28;20507;-95
2022/01/04 11:02:40;;;;;;;50.50;17.23;;;;;;;8.24;92.68;99639.88;4973692;28;20039;-96
2022/01/04 11:05:17;;;;;;;52.58;16.92;;;;;;;8.21;93.06;99650.28;4998291;28;20107;-95
2022/01/04 11:08:02;;;;;;;51.65;16.58;;;;;;;8.26;92.83;99648.41;4971105;28;20035;-95
2022/01/04 11:10:31;;;;;;;55.20;17.85;;;;;;;8.23;92.17;99638.19;4966315;28;20089;-96
2022/01/04 11:12:59;;;;;;;50.13;16.45;;;;;;;8.14;92.76;99629.00;4969955;28;20408;-96
2022/01/04 11:15:31;;;;;;;48.15;17.38;;;;;;;8.17;93.14;99622.91;4968623;28;20601;-95
2022/01/04 11:17:57;;;;;;;54.30;17.70;;;;;;;8.13;92.99;99610.97;4969058;28;20031;-96
2022/01/04 11:20:23;;;;;;;51.70;17.60;;;;;;;8.23;92.57;99631.28;4969736;28;20057;-90
2022/01/04 11:22:50;;;;;;;51.42;17.00;;;;;;;8.13;93.23;99627.31;4968436;28;20030;-90
2022/01/04 11:25:22;;;;;;;51.35;17.13;;;;;;;8.06;94.18;99627.56;4967718;28;20026;-90
2022/01/04 11:27:49;;;;;;;48.20;16.77;;;;;;;7.93;95.22;99642.59;4970246;28;20048;-90
2022/01/04 11:30:25;;;;;;;61.38;18.65;;;;;;;7.86;95.93;99659.19;4969682;28;20065;-91
2022/01/04 11:32:59;;;;;;;59.05;18.65;;;;;;;7.73;96.88;99674.19;4969246;28;20027;-90
2022/01/04 11:35:26;;;;;;;43.83;14.77;;;;;;;7.66;97.25;99666.69;4976964;28;20041;-89